sensor_id;sensor_type;location;lat;lon;timestamp;pressure;altitude;pressure_sealevel;temperature;humidity
62946;BME280;52164;52.212;-1.010;2023-05-10T00:01:59;100109.95;;;11.45;76.01
62946;BME280;52164;52.212;-1.010;2023-05-10T00:04:24;100108.39;;;11.41;75.94
62946;BME280;52164;52.212;-1.010;2023-05-10T00:06:52;100111.65;;;11.37;75.97
62946;BME280;52164;52.212;-1.010;2023-05-10T00:09:17;100111.85;;;11.33;75.98
62946;BME280;52164;52.212;-1.010;2023-05-10T00:11:43;100117.95;;;11.30;76.22
62946;BME280;52164;52.212;-1.010;2023-05-10T00:14:08;100119.95;;;11.27;76.26
62946;BME280;52164;52.212;-1.010;2023-05-10T00:16:33;100120.88;;;11.25;76.03
62946;BME280;52164;52.212;-1.010;2023-05-10T00:18:58;100121.42;;;11.23;76.28
62946;BME280;52164;52.212;-1.010;2023-05-10T00:21:24;100122.69;;;11.20;76.25
62946;BME280;52164;52.212;-1.010;2023-05-10T00:23:49;100120.56;;;11.18;76.11
62946;BME280;52164;52.212;-1.010;2023-05-10T00:26:15;100120.80;;;11.13;76.28
62946;BME280;52164;52.212;-1.010;2023-05-10T00:28:41;100115.64;;;11.08;76.43
62946;BME280;52164;52.212;-1.010;2023-05-10T00:31:07;100114.08;;;11.04;76.33
62946;BME280;52164;52.212;-1.010;2023-05-10T00:33:32;100111.61;;;10.99;76.30
62946;BME280;52164;52.212;-1.010;2023-05-10T00:35:59;100116.84;;;10.94;76.42
62946;BME280;52164;52.212;-1.010;2023-05-10T00:38:24;100117.06;;;10.89;76.28
62946;BME280;52164;52.212;-1.010;2023-05-10T00:40:50;100117.65;;;10.81;76.17
62946;BME280;52164;52.212;-1.010;2023-05-10T00:43:15;100119.13;;;10.74;76.35
62946;BME280;52164;52.212;-1.010;2023-05-10T00:45:40;100114.55;;;10.66;76.16
62946;BME280;52164;52.212;-1.010;2023-05-10T00:48:06;100118.17;;;10.57;76.14
62946;BME280;52164;52.212;-1.010;2023-05-10T00:50:32;100117.52;;;10.47;76.48
62946;BME280;52164;52.212;-1.010;2023-05-10T00:52:59;100122.55;;;10.39;76.67
62946;BME280;52164;52.212;-1.010;2023-05-10T00:55:26;100120.79;;;10.32;77.18
62946;BME280;52164;52.212;-1.010;2023-05-10T00:57:53;100119.91;;;10.28;77.38
62946;BME280;52164;52.212;-1.010;2023-05-10T01:00:19;100120.45;;;10.24;77.52
62946;BME280;52164;52.212;-1.010;2023-05-10T01:02:45;100122.62;;;10.20;77.64
62946;BME280;52164;52.212;-1.010;2023-05-10T01:05:11;100126.92;;;10.15;77.47
62946;BME280;52164;52.212;-1.010;2023-05-10T01:07:37;100126.58;;;10.10;77.40
62946;BME280;52164;52.212;-1.010;2023-05-10T01:10:02;100126.95;;;10.06;77.24
62946;BME280;52164;52.212;-1.010;2023-05-10T01:12:27;100123.40;;;10.03;77.76
62946;BME280;52164;52.212;-1.010;2023-05-10T01:14:53;100125.90;;;10.03;77.71
62946;BME280;52164;52.212;-1.010;2023-05-10T01:17:19;100126.45;;;10.03;78.05
62946;BME280;52164;52.212;-1.010;2023-05-10T01:19:45;100126.27;;;10.04;78.12
62946;BME280;52164;52.212;-1.010;2023-05-10T01:24:28;100125.73;;;10.05;77.93
62946;BME280;52164;52.212;-1.010;2023-05-10T01:30:15;100130.55;;;10.00;77.92
62946;BME280;52164;52.212;-1.010;2023-05-10T01:30:15;100134.31;;;9.96;77.93
62946;BME280;52164;52.212;-1.010;2023-05-10T01:32:54;100136.09;;;9.95;77.92
62946;BME280;52164;52.212;-1.010;2023-05-10T01:37:50;100133.59;;;9.94;78.00
62946;BME280;52164;52.212;-1.010;2023-05-10T01:40:19;100136.09;;;9.94;78.10
62946;BME280;52164;52.212;-1.010;2023-05-10T01:42:51;100136.27;;;9.96;77.84
62946;BME280;52164;52.212;-1.010;2023-05-10T01:45:21;100139.11;;;9.97;77.70
62946;BME280;52164;52.212;-1.010;2023-05-10T01:47:50;100141.80;;;9.96;77.49
62946;BME280;52164;52.212;-1.010;2023-05-10T01:50:22;100146.43;;;9.95;77.39
62946;BME280;52164;52.212;-1.010;2023-05-10T01:52:51;100147.15;;;9.93;77.24
62946;BME280;52164;52.212;-1.010;2023-05-10T01:55:20;100144.48;;;9.93;77.40
62946;BME280;52164;52.212;-1.010;2023-05-10T01:57:46;100144.84;;;9.92;77.14
62946;BME280;52164;52.212;-1.010;2023-05-10T02:00:13;100140.20;;;9.93;77.25
62946;BME280;52164;52.212;-1.010;2023-05-10T02:02:40;100141.62;;;9.94;77.21
62946;BME280;52164;52.212;-1.010;2023-05-10T02:05:07;100144.83;;;9.95;77.21
62946;BME280;52164;52.212;-1.010;2023-05-10T02:07:34;100148.58;;;9.95;77.18
62946;BME280;52164;52.212;-1.010;2023-05-10T02:10:00;100152.67;;;9.95;77.18
62946;BME280;52164;52.212;-1.010;2023-05-10T02:12:26;100150.71;;;9.94;77.45
62946;BME280;52164;52.212;-1.010;2023-05-10T02:14:53;100154.64;;;9.93;77.23
62946;BME280;52164;52.212;-1.010;2023-05-10T02:17:20;100151.98;;;9.91;77.20
62946;BME280;52164;52.212;-1.010;2023-05-10T02:19:46;100151.64;;;9.87;77.14
62946;BME280;52164;52.212;-1.010;2023-05-10T02:22:12;100147.36;;;9.83;77.06
62946;BME280;52164;52.212;-1.010;2023-05-10T02:24:38;100147.20;;;9.80;77.11
62946;BME280;52164;52.212;-1.010;2023-05-10T02:27:05;100150.05;;;9.77;77.23
62946;BME280;52164;52.212;-1.010;2023-05-10T02:29:31;100151.85;;;9.75;77.24
62946;BME280;52164;52.212;-1.010;2023-05-10T02:31:57;100152.39;;;9.73;76.94
62946;BME280;52164;52.212;-1.010;2023-05-10T02:34:25;100155.05;;;9.68;77.30
62946;BME280;52164;52.212;-1.010;2023-05-10T02:36:51;100154.52;;;9.65;77.11
62946;BME280;52164;52.212;-1.010;2023-05-10T02:39:21;100160.24;;;9.61;77.38
62946;BME280;52164;52.212;-1.010;2023-05-10T02:41:46;100159.00;;;9.55;77.07
62946;BME280;52164;52.212;-1.010;2023-05-10T02:44:14;100160.25;;;9.49;77.04
62946;BME280;52164;52.212;-1.010;2023-05-10T02:46:40;100160.09;;;9.46;77.23
62946;BME280;52164;52.212;-1.010;2023-05-10T02:49:05;100161.86;;;9.43;77.43
62946;BME280;52164;52.212;-1.010;2023-05-10T02:51:32;100160.79;;;9.41;77.34
62946;BME280;52164;52.212;-1.010;2023-05-10T02:54:01;100160.09;;;9.37;77.59
62946;BME280;52164;52.212;-1.010;2023-05-10T02:56:29;100159.73;;;9.33;77.60
62946;BME280;52164;52.212;-1.010;2023-05-10T02:58:57;100162.59;;;9.31;77.87
62946;BME280;52164;52.212;-1.010;2023-05-10T03:01:23;100161.70;;;9.31;78.21
62946;BME280;52164;52.212;-1.010;2023-05-10T03:03:49;100159.74;;;9.32;77.96
62946;BME280;52164;52.212;-1.010;2023-05-10T03:06:14;100162.41;;;9.35;78.29
62946;BME280;52164;52.212;-1.010;2023-05-10T03:08:42;100162.59;;;9.36;78.14
62946;BME280;52164;52.212;-1.010;2023-05-10T03:11:16;100163.83;;;9.37;78.18
62946;BME280;52164;52.212;-1.010;2023-05-10T03:13:55;100162.59;;;9.39;78.22
62946;BME280;52164;52.212;-1.010;2023-05-10T03:16:24;100166.66;;;9.41;78.25
62946;BME280;52164;52.212;-1.010;2023-05-10T03:21:18;100164.90;;;9.44;78.26
62946;BME280;52164;52.212;-1.010;2023-05-10T03:23:50;100165.08;;;9.43;78.14
62946;BME280;52164;52.212;-1.010;2023-05-10T03:26:18;100169.17;;;9.42;77.92
62946;BME280;52164;52.212;-1.010;2023-05-10T03:28:45;100164.36;;;9.40;77.89
62946;BME280;52164;52.212;-1.010;2023-05-10T03:31:13;100170.24;;;9.38;77.80
62946;BME280;52164;52.212;-1.010;2023-05-10T03:33:54;100170.96;;;9.34;77.77
62946;BME280;52164;52.212;-1.010;2023-05-10T03:36:19;100172.55;;;9.30;77.54
62946;BME280;52164;52.212;-1.010;2023-05-10T03:38:45;100169.70;;;9.25;77.70
62946;BME280;52164;52.212;-1.010;2023-05-10T03:41:13;100172.56;;;9.21;77.98
62946;BME280;52164;52.212;-1.010;2023-05-10T03:43:39;100175.95;;;9.16;77.95
62946;BME280;52164;52.212;-1.010;2023-05-10T03:46:04;100179.50;;;9.12;77.96
62946;BME280;52164;52.212;-1.010;2023-05-10T03:48:30;100182.16;;;9.05;78.10
62946;BME280;52164;52.212;-1.010;2023-05-10T03:50:56;100185.90;;;8.99;78.17
62946;BME280;52164;52.212;-1.010;2023-05-10T03:53:22;100187.14;;;8.94;78.40
62946;BME280;52164;52.212;-1.010;2023-05-10T03:55:48;100193.36;;;8.89;78.38
62946;BME280;52164;52.212;-1.010;2023-05-10T03:58:13;100189.98;;;8.83;78.81
62946;BME280;52164;52.212;-1.010;2023-05-10T04:00:39;100193.16;;;8.79;79.07
62946;BME280;52164;52.212;-1.010;2023-05-10T04:03:09;100194.95;;;8.75;79.08
62946;BME280;52164;52.212;-1.010;2023-05-10T04:05:34;100192.96;;;8.70;79.14
62946;BME280;52164;52.212;-1.010;2023-05-10T04:07:59;100189.75;;;8.67;79.08
62946;BME280;52164;52.212;-1.010;2023-05-10T04:10:25;100192.25;;;8.66;79.13
62946;BME280;52164;52.212;-1.010;2023-05-10T04:12:50;100195.09;;;8.64;79.03
62946;BME280;52164;52.212;-1.010;2023-05-10T04:15:15;100197.39;;;8.60;79.06
62946;BME280;52164;52.212;-1.010;2023-05-10T04:17:41;100195.95;;;8.58;79.13
62946;BME280;52164;52.212;-1.010;2023-05-10T04:20:07;100197.20;;;8.56;79.29
62946;BME280;52164;52.212;-1.010;2023-05-10T04:22:33;100198.98;;;8.56;79.65
62946;BME280;52164;52.212;-1.010;2023-05-10T04:24:58;100200.75;;;8.56;79.62
62946;BME280;52164;52.212;-1.010;2023-05-10T04:27:24;100204.84;;;8.58;79.45
62946;BME280;52164;52.212;-1.010;2023-05-10T04:29:49;100203.60;;;8.59;79.66
62946;BME280;52164;52.212;-1.010;2023-05-10T04:32:15;100205.56;;;8.59;79.35
62946;BME280;52164;52.212;-1.010;2023-05-10T04:34:42;100202.71;;;8.60;79.50
62946;BME280;52164;52.212;-1.010;2023-05-10T04:37:07;100199.89;;;8.61;79.47
62946;BME280;52164;52.212;-1.010;2023-05-10T04:39:33;100203.98;;;8.62;79.52
62946;BME280;52164;52.212;-1.010;2023-05-10T04:41:58;100203.80;;;8.63;79.62
62946;BME280;52164;52.212;-1.010;2023-05-10T04:44:23;100205.59;;;8.66;79.77
62946;BME280;52164;52.212;-1.010;2023-05-10T04:46:49;100209.69;;;8.69;79.72
62946;BME280;52164;52.212;-1.010;2023-05-10T04:49:14;100212.54;;;8.72;79.66
62946;BME280;52164;52.212;-1.010;2023-05-10T04:51:39;100211.31;;;8.77;79.85
62946;BME280;52164;52.212;-1.010;2023-05-10T04:54:04;100211.86;;;8.83;79.79
62946;BME280;52164;52.212;-1.010;2023-05-10T04:56:30;100208.84;;;8.88;80.07
62946;BME280;52164;52.212;-1.010;2023-05-10T04:58:55;100212.06;;;8.94;80.15
62946;BME280;52164;52.212;-1.010;2023-05-10T05:01:20;100214.73;;;9.00;80.49
62946;BME280;52164;52.212;-1.010;2023-05-10T05:03:46;100215.64;;;9.06;80.43
62946;BME280;52164;52.212;-1.010;2023-05-10T05:06:11;100214.03;;;9.11;80.51
62946;BME280;52164;52.212;-1.010;2023-05-10T05:08:36;100214.59;;;9.17;80.51
62946;BME280;52164;52.212;-1.010;2023-05-10T05:11:02;100218.32;;;9.22;80.36
62946;BME280;52164;52.212;-1.010;2023-05-10T05:13:27;100217.97;;;9.28;80.58
62946;BME280;52164;52.212;-1.010;2023-05-10T05:15:52;100222.25;;;9.35;80.37
62946;BME280;52164;52.212;-1.010;2023-05-10T05:18:18;100227.41;;;9.41;80.32
62946;BME280;52164;52.212;-1.010;2023-05-10T05:20:43;100228.13;;;9.45;80.39
62946;BME280;52164;52.212;-1.010;2023-05-10T05:23:09;100229.02;;;9.50;80.54
62946;BME280;52164;52.212;-1.010;2023-05-10T05:25:34;100232.75;;;9.54;80.26
62946;BME280;52164;52.212;-1.010;2023-05-10T05:28:00;100234.36;;;9.59;80.46
62946;BME280;52164;52.212;-1.010;2023-05-10T05:30:26;100234.02;;;9.64;80.32
62946;BME280;52164;52.212;-1.010;2023-05-10T05:32:52;100232.58;;;9.67;80.17
62946;BME280;52164;52.212;-1.010;2023-05-10T05:35:17;100237.20;;;9.73;80.13
62946;BME280;52164;52.212;-1.010;2023-05-10T05:37:43;100240.40;;;9.78;79.99
62946;BME280;52164;52.212;-1.010;2023-05-10T05:40:11;100240.22;;;9.82;80.09
62946;BME280;52164;52.212;-1.010;2023-05-10T05:42:38;100247.88;;;9.88;80.26
62946;BME280;52164;52.212;-1.010;2023-05-10T05:45:04;100250.55;;;9.92;80.00
62946;BME280;52164;52.212;-1.010;2023-05-10T05:47:30;100250.53;;;9.97;79.93
62946;BME280;52164;52.212;-1.010;2023-05-10T05:49:55;100252.15;;;9.99;79.69
62946;BME280;52164;52.212;-1.010;2023-05-10T05:52:20;100254.09;;;10.02;79.64
62946;BME280;52164;52.212;-1.010;2023-05-10T05:54:46;100254.45;;;10.08;79.47
62946;BME280;52164;52.212;-1.010;2023-05-10T05:57:11;100252.64;;;10.12;79.30
62946;BME280;52164;52.212;-1.010;2023-05-10T05:59:37;100253.17;;;10.16;79.39
62946;BME280;52164;52.212;-1.010;2023-05-10T06:02:07;100257.25;;;10.23;79.26
62946;BME280;52164;52.212;-1.010;2023-05-10T06:04:35;100256.70;;;10.30;79.36
62946;BME280;52164;52.212;-1.010;2023-05-10T06:07:00;100256.34;;;10.38;79.28
62946;BME280;52164;52.212;-1.010;2023-05-10T06:09:25;100254.71;;;10.46;79.00
62946;BME280;52164;52.212;-1.010;2023-05-10T06:11:50;100260.56;;;10.56;78.93
62946;BME280;52164;52.212;-1.010;2023-05-10T06:14:16;100261.77;;;10.65;78.58
62946;BME280;52164;52.212;-1.010;2023-05-10T06:16:41;100264.77;;;10.75;78.58
62946;BME280;52164;52.212;-1.010;2023-05-10T06:19:06;100265.09;;;10.84;78.47
62946;BME280;52164;52.212;-1.010;2023-05-10T06:21:32;100266.09;;;10.95;78.32
62946;BME280;52164;52.212;-1.010;2023-05-10T06:23:57;100269.43;;;11.06;78.25
62946;BME280;52164;52.212;-1.010;2023-05-10T06:26:22;100271.70;;;11.16;78.03
62946;BME280;52164;52.212;-1.010;2023-05-10T06:28:48;100272.15;;;11.27;78.04
62946;BME280;52164;52.212;-1.010;2023-05-10T06:31:13;100271.73;;;11.37;77.69
62946;BME280;52164;52.212;-1.010;2023-05-10T06:33:38;100274.87;;;11.48;77.59
62946;BME280;52164;52.212;-1.010;2023-05-10T06:36:04;100273.91;;;11.57;77.21
62946;BME280;52164;52.212;-1.010;2023-05-10T06:38:30;100278.31;;;11.63;77.20
62946;BME280;52164;52.212;-1.010;2023-05-10T06:40:55;100281.66;;;11.70;76.97
62946;BME280;52164;52.212;-1.010;2023-05-10T06:43:21;100283.59;;;11.74;76.65
62946;BME280;52164;52.212;-1.010;2023-05-10T06:45:47;100286.60;;;11.79;76.50
62946;BME280;52164;52.212;-1.010;2023-05-10T06:48:13;100290.86;;;11.81;76.29
62946;BME280;52164;52.212;-1.010;2023-05-10T06:50:38;100290.29;;;11.87;76.07
62946;BME280;52164;52.212;-1.010;2023-05-10T06:53:03;100292.58;;;11.89;75.87
62946;BME280;52164;52.212;-1.010;2023-05-10T06:55:28;100295.79;;;11.93;75.60
62946;BME280;52164;52.212;-1.010;2023-05-10T06:57:54;100294.19;;;11.94;75.29
62946;BME280;52164;52.212;-1.010;2023-05-10T07:00:19;100292.75;;;11.96;75.16
62946;BME280;52164;52.212;-1.010;2023-05-10T07:02:45;100290.89;;;12.02;75.54
62946;BME280;52164;52.212;-1.010;2023-05-10T07:05:13;100293.36;;;12.07;75.14
62946;BME280;52164;52.212;-1.010;2023-05-10T07:07:38;100290.98;;;12.12;75.35
62946;BME280;52164;52.212;-1.010;2023-05-10T07:10:03;100295.02;;;12.20;75.69
62946;BME280;52164;52.212;-1.010;2023-05-10T07:12:30;100298.33;;;12.28;75.41
62946;BME280;52164;52.212;-1.010;2023-05-10T07:14:55;100298.97;;;12.34;75.19
62946;BME280;52164;52.212;-1.010;2023-05-10T07:17:21;100294.80;;;12.40;75.02
62946;BME280;52164;52.212;-1.010;2023-05-10T07:19:46;100297.27;;;12.43;74.81
62946;BME280;52164;52.212;-1.010;2023-05-10T07:22:11;100297.04;;;12.46;74.87
62946;BME280;52164;52.212;-1.010;2023-05-10T07:24:37;100299.14;;;12.52;74.59
62946;BME280;52164;52.212;-1.010;2023-05-10T07:27:03;100302.48;;;12.57;74.50
62946;BME280;52164;52.212;-1.010;2023-05-10T07:29:29;100300.30;;;12.61;74.39
62946;BME280;52164;52.212;-1.010;2023-05-10T07:31:54;100302.33;;;12.70;74.45
62946;BME280;52164;52.212;-1.010;2023-05-10T07:34:19;100300.27;;;12.77;74.15
62946;BME280;52164;52.212;-1.010;2023-05-10T07:36:47;100297.67;;;12.85;73.90
62946;BME280;52164;52.212;-1.010;2023-05-10T07:39:13;100296.86;;;12.92;73.67
62946;BME280;52164;52.212;-1.010;2023-05-10T07:41:38;100294.30;;;12.96;73.56
62946;BME280;52164;52.212;-1.010;2023-05-10T07:44:04;100289.20;;;13.02;73.40
62946;BME280;52164;52.212;-1.010;2023-05-10T07:46:30;100290.41;;;13.07;73.24
62946;BME280;52164;52.212;-1.010;2023-05-10T07:48:55;100293.70;;;13.13;73.29
62946;BME280;52164;52.212;-1.010;2023-05-10T07:51:21;100295.75;;;13.21;73.07
62946;BME280;52164;52.212;-1.010;2023-05-10T07:53:46;100294.92;;;13.28;72.92
62946;BME280;52164;52.212;-1.010;2023-05-10T07:56:27;100294.67;;;13.36;72.64
62946;BME280;52164;52.212;-1.010;2023-05-10T07:58:55;100291.55;;;13.41;72.36
62946;BME280;52164;52.212;-1.010;2023-05-10T08:01:21;100287.84;;;13.49;72.50
62946;BME280;52164;52.212;-1.010;2023-05-10T08:03:46;100289.85;;;13.59;72.21
62946;BME280;52164;52.212;-1.010;2023-05-10T08:06:12;100286.52;;;13.64;71.51
62946;BME280;52164;52.212;-1.010;2023-05-10T08:08:37;100286.41;;;13.71;71.33
62946;BME280;52164;52.212;-1.010;2023-05-10T08:11:03;100289.51;;;13.79;71.29
62946;BME280;52164;52.212;-1.010;2023-05-10T08:13:28;100287.58;;;13.88;71.16
62946;BME280;52164;52.212;-1.010;2023-05-10T08:15:54;100285.11;;;13.95;70.42
62946;BME280;52164;52.212;-1.010;2023-05-10T08:18:19;100283.36;;;14.03;70.04
62946;BME280;52164;52.212;-1.010;2023-05-10T08:20:45;100286.11;;;14.10;69.85
62946;BME280;52164;52.212;-1.010;2023-05-10T08:23:12;100289.02;;;14.16;70.09
62946;BME280;52164;52.212;-1.010;2023-05-10T08:25:37;100295.15;;;14.25;70.18
62946;BME280;52164;52.212;-1.010;2023-05-10T08:28:03;100297.11;;;14.36;69.85
62946;BME280;52164;52.212;-1.010;2023-05-10T08:30:28;100291.96;;;14.52;69.73
62946;BME280;52164;52.212;-1.010;2023-05-10T08:32:54;100298.36;;;14.65;69.46
62946;BME280;52164;52.212;-1.010;2023-05-10T08:35:19;100295.18;;;14.72;69.33
62946;BME280;52164;52.212;-1.010;2023-05-10T08:37:47;100296.64;;;14.71;69.10
62946;BME280;52164;52.212;-1.010;2023-05-10T08:40:12;100301.21;;;14.75;69.21
62946;BME280;52164;52.212;-1.010;2023-05-10T08:42:40;100301.12;;;14.80;68.63
62946;BME280;52164;52.212;-1.010;2023-05-10T08:45:13;100301.77;;;14.83;68.60
62946;BME280;52164;52.212;-1.010;2023-05-10T08:47:40;100305.81;;;14.88;67.82
62946;BME280;52164;52.212;-1.010;2023-05-10T08:50:06;100303.58;;;14.91;66.58
62946;BME280;52164;52.212;-1.010;2023-05-10T08:52:32;100300.54;;;14.99;66.85
62946;BME280;52164;52.212;-1.010;2023-05-10T08:54:58;100297.86;;;15.07;67.15
62946;BME280;52164;52.212;-1.010;2023-05-10T08:57:23;100302.59;;;15.20;66.98
62946;BME280;52164;52.212;-1.010;2023-05-10T08:59:48;100305.16;;;15.34;66.76
62946;BME280;52164;52.212;-1.010;2023-05-10T09:02:14;100301.21;;;15.49;65.89
62946;BME280;52164;52.212;-1.010;2023-05-10T09:04:39;100305.46;;;15.60;65.61
62946;BME280;52164;52.212;-1.010;2023-05-10T09:07:06;100305.77;;;15.61;65.13
62946;BME280;52164;52.212;-1.010;2023-05-10T09:09:31;100307.96;;;15.76;64.65
62946;BME280;52164;52.212;-1.010;2023-05-10T09:11:57;100307.70;;;15.94;63.84
62946;BME280;52164;52.212;-1.010;2023-05-10T09:14:23;100314.24;;;16.13;63.80
62946;BME280;52164;52.212;-1.010;2023-05-10T09:16:49;100311.85;;;16.08;63.26
62946;BME280;52164;52.212;-1.010;2023-05-10T09:19:15;100313.25;;;16.10;62.96
62946;BME280;52164;52.212;-1.010;2023-05-10T09:21:40;100315.44;;;16.22;62.71
62946;BME280;52164;52.212;-1.010;2023-05-10T09:24:06;100311.33;;;16.41;61.62
62946;BME280;52164;52.212;-1.010;2023-05-10T09:26:32;100312.95;;;16.54;61.74
62946;BME280;52164;52.212;-1.010;2023-05-10T09:28:58;100313.70;;;16.53;61.21
62946;BME280;52164;52.212;-1.010;2023-05-10T09:31:24;100314.09;;;16.58;61.46
62946;BME280;52164;52.212;-1.010;2023-05-10T09:33:52;100306.27;;;16.68;60.94
62946;BME280;52164;52.212;-1.010;2023-05-10T09:36:17;100313.76;;;16.64;61.44
62946;BME280;52164;52.212;-1.010;2023-05-10T09:38:51;100310.02;;;16.63;61.55
62946;BME280;52164;52.212;-1.010;2023-05-10T09:41:20;100310.05;;;16.68;61.55
62946;BME280;52164;52.212;-1.010;2023-05-10T09:43:45;100307.80;;;16.77;61.69
62946;BME280;52164;52.212;-1.010;2023-05-10T09:46:11;100306.92;;;16.96;61.24
62946;BME280;52164;52.212;-1.010;2023-05-10T09:48:41;100309.89;;;17.00;61.29
62946;BME280;52164;52.212;-1.010;2023-05-10T09:51:07;100302.96;;;17.14;60.58
62946;BME280;52164;52.212;-1.010;2023-05-10T09:53:32;100301.09;;;17.34;60.47
62946;BME280;52164;52.212;-1.010;2023-05-10T09:55:57;100301.30;;;17.62;60.34
62946;BME280;52164;52.212;-1.010;2023-05-10T09:58:22;100298.36;;;17.91;59.56
62946;BME280;52164;52.212;-1.010;2023-05-10T10:00:48;100293.46;;;18.13;59.06
62946;BME280;52164;52.212;-1.010;2023-05-10T10:03:17;100291.84;;;18.39;59.43
62946;BME280;52164;52.212;-1.010;2023-05-10T10:05:43;100297.48;;;18.58;59.09
62946;BME280;52164;52.212;-1.010;2023-05-10T10:08:09;100304.37;;;18.72;58.01
62946;BME280;52164;52.212;-1.010;2023-05-10T10:10:34;100303.70;;;18.76;57.37
62946;BME280;52164;52.212;-1.010;2023-05-10T10:13:00;100299.61;;;18.64;57.35
62946;BME280;52164;52.212;-1.010;2023-05-10T10:15:26;100303.10;;;18.43;57.80
62946;BME280;52164;52.212;-1.010;2023-05-10T10:17:51;100301.73;;;18.25;57.59
62946;BME280;52164;52.212;-1.010;2023-05-10T10:20:17;100300.23;;;18.05;57.04
62946;BME280;52164;52.212;-1.010;2023-05-10T10:22:43;100301.38;;;17.93;57.17
62946;BME280;52164;52.212;-1.010;2023-05-10T10:25:10;100302.98;;;17.94;57.71
62946;BME280;52164;52.212;-1.010;2023-05-10T10:27:41;100304.40;;;18.00;57.95
62946;BME280;52164;52.212;-1.010;2023-05-10T10:30:42;100305.92;;;18.03;57.26
62946;BME280;52164;52.212;-1.010;2023-05-10T10:33:08;100307.48;;;17.95;57.67
62946;BME280;52164;52.212;-1.010;2023-05-10T10:35:38;100313.67;;;17.80;58.12
62946;BME280;52164;52.212;-1.010;2023-05-10T10:38:05;100314.95;;;17.69;58.44
62946;BME280;52164;52.212;-1.010;2023-05-10T10:40:36;100316.45;;;17.56;58.81
62946;BME280;52164;52.212;-1.010;2023-05-10T10:43:21;100315.61;;;17.42;59.64
62946;BME280;52164;52.212;-1.010;2023-05-10T10:46:18;100316.98;;;17.39;60.62
62946;BME280;52164;52.212;-1.010;2023-05-10T10:48:35;100315.11;;;17.36;60.59
62946;BME280;52164;52.212;-1.010;2023-05-10T10:51:00;100309.58;;;17.34;60.41
62946;BME280;52164;52.212;-1.010;2023-05-10T10:53:26;100305.72;;;17.30;60.85
62946;BME280;52164;52.212;-1.010;2023-05-10T10:56:10;100306.59;;;17.25;60.78
62946;BME280;52164;52.212;-1.010;2023-05-10T10:58:37;100302.92;;;17.33;60.80
62946;BME280;52164;52.212;-1.010;2023-05-10T11:01:18;100296.51;;;17.48;60.90
62946;BME280;52164;52.212;-1.010;2023-05-10T11:04:17;100299.34;;;17.83;60.82
62946;BME280;52164;52.212;-1.010;2023-05-10T11:06:29;100289.88;;;18.18;59.68
62946;BME280;52164;52.212;-1.010;2023-05-10T11:08:56;100289.34;;;18.43;59.48
62946;BME280;52164;52.212;-1.010;2023-05-10T11:11:22;100289.75;;;18.77;58.22
62946;BME280;52164;52.212;-1.010;2023-05-10T11:13:47;100286.61;;;18.93;57.41
62946;BME280;52164;52.212;-1.010;2023-05-10T11:16:15;100288.05;;;18.99;57.18
62946;BME280;52164;52.212;-1.010;2023-05-10T11:18:40;100286.64;;;19.21;56.80
62946;BME280;52164;52.212;-1.010;2023-05-10T11:21:08;100283.58;;;19.38;55.45
62946;BME280;52164;52.212;-1.010;2023-05-10T11:23:50;100283.39;;;19.57;55.58
62946;BME280;52164;52.212;-1.010;2023-05-10T11:26:16;100287.60;;;19.56;55.01
62946;BME280;52164;52.212;-1.010;2023-05-10T11:28:49;100289.40;;;19.47;55.56
62946;BME280;52164;52.212;-1.010;2023-05-10T11:31:17;100282.31;;;19.61;55.23
62946;BME280;52164;52.212;-1.010;2023-05-10T11:33:46;100278.20;;;19.69;54.79
62946;BME280;52164;52.212;-1.010;2023-05-10T11:36:14;100276.63;;;19.63;55.22
62946;BME280;52164;52.212;-1.010;2023-05-10T11:38:40;100277.52;;;19.86;54.76
62946;BME280;52164;52.212;-1.010;2023-05-10T11:41:09;100277.70;;;20.28;53.45
62946;BME280;52164;52.212;-1.010;2023-05-10T11:43:36;100276.08;;;20.69;53.09
62946;BME280;52164;52.212;-1.010;2023-05-10T11:46:04;100277.75;;;20.72;52.02
62946;BME280;52164;52.212;-1.010;2023-05-10T11:48:30;100275.98;;;20.63;52.10
62946;BME280;52164;52.212;-1.010;2023-05-10T11:50:57;100277.98;;;20.50;52.14
62946;BME280;52164;52.212;-1.010;2023-05-10T11:53:23;100274.98;;;20.40;51.73
62946;BME280;52164;52.212;-1.010;2023-05-10T11:55:48;100274.24;;;20.41;51.80
62946;BME280;52164;52.212;-1.010;2023-05-10T11:58:14;100276.30;;;20.27;51.90
62946;BME280;52164;52.212;-1.010;2023-05-10T12:00:39;100278.59;;;20.20;52.27
62946;BME280;52164;52.212;-1.010;2023-05-10T12:03:04;100275.41;;;20.10;52.49
62946;BME280;52164;52.212;-1.010;2023-05-10T12:05:31;100273.90;;;19.94;51.48
62946;BME280;52164;52.212;-1.010;2023-05-10T12:08:10;100262.59;;;19.92;51.69
62946;BME280;52164;52.212;-1.010;2023-05-10T12:10:35;100260.58;;;19.79;51.48
62946;BME280;52164;52.212;-1.010;2023-05-10T12:13:00;100257.02;;;19.91;51.52
62946;BME280;52164;52.212;-1.010;2023-05-10T12:15:26;100259.95;;;20.40;50.35
62946;BME280;52164;52.212;-1.010;2023-05-10T12:17:53;100260.23;;;20.79;50.55
62946;BME280;52164;52.212;-1.010;2023-05-10T12:20:19;100255.73;;;20.93;50.16
62946;BME280;52164;52.212;-1.010;2023-05-10T12:22:46;100260.80;;;21.09;50.06
62946;BME280;52164;52.212;-1.010;2023-05-10T12:25:12;100260.21;;;21.14;49.60
62946;BME280;52164;52.212;-1.010;2023-05-10T12:27:37;100260.52;;;21.15;49.33
62946;BME280;52164;52.212;-1.010;2023-05-10T12:30:02;100265.33;;;21.17;48.71
62946;BME280;52164;52.212;-1.010;2023-05-10T12:32:43;100256.90;;;21.15;48.62
62946;BME280;52164;52.212;-1.010;2023-05-10T12:35:09;100255.23;;;21.12;49.11
62946;BME280;52164;52.212;-1.010;2023-05-10T12:37:34;100254.21;;;21.18;48.89
62946;BME280;52164;52.212;-1.010;2023-05-10T12:40:05;100253.75;;;21.32;48.48
62946;BME280;52164;52.212;-1.010;2023-05-10T12:42:33;100249.75;;;21.58;48.27
62946;BME280;52164;52.212;-1.010;2023-05-10T12:44:58;100248.25;;;21.98;48.15
62946;BME280;52164;52.212;-1.010;2023-05-10T12:47:24;100243.86;;;22.27;47.67
62946;BME280;52164;52.212;-1.010;2023-05-10T12:49:49;100243.21;;;22.40;47.55